createdAt,value
2022-07-26T00:02:28.127Z,18.32
2022-07-26T00:05:33.988Z,18.32
2022-07-26T00:08:40.660Z,18.33
2022-07-26T00:11:46.928Z,18.36
2022-07-26T00:14:52.171Z,18.40
2022-07-26T00:17:58.241Z,18.44
2022-07-26T00:21:10.033Z,18.46
2022-07-26T00:24:19.253Z,18.47
2022-07-26T00:27:25.733Z,18.49
2022-07-26T00:30:32.614Z,18.50
2022-07-26T00:33:37.755Z,18.52
2022-07-26T00:36:45.046Z,18.52
2022-07-26T00:39:51.728Z,18.53
2022-07-26T00:42:57.776Z,18.51
2022-07-26T00:46:03.381Z,18.50
2022-07-26T00:49:09.781Z,18.48
2022-07-26T00:52:17.910Z,18.47
2022-07-26T00:55:24.753Z,18.44
2022-07-26T00:58:32.289Z,18.41
2022-07-26T01:04:59.583Z,18.39
2022-07-26T01:08:05.766Z,18.39
2022-07-26T01:11:12.906Z,18.38
2022-07-26T01:14:19.885Z,18.40
2022-07-26T01:17:27.388Z,18.40
2022-07-26T01:20:33.453Z,18.41
2022-07-26T01:23:39.413Z,18.41
2022-07-26T01:26:45.994Z,18.40
2022-07-26T01:29:52.465Z,18.38
2022-07-26T01:32:59.226Z,18.38
2022-07-26T01:36:08.263Z,18.36
2022-07-26T01:39:14.839Z,18.33
2022-07-26T01:42:21.910Z,18.34
2022-07-26T01:45:29.741Z,18.34
2022-07-26T01:48:37.527Z,18.34
2022-07-26T01:51:44.100Z,18.33
2022-07-26T01:54:50.938Z,18.34
2022-07-26T01:58:00.858Z,18.33
2022-07-26T02:01:07.192Z,18.32
2022-07-26T02:04:13.070Z,18.32
2022-07-26T02:07:19.100Z,18.32
2022-07-26T02:10:28.649Z,18.32
2022-07-26T02:13:35.019Z,18.30
2022-07-26T02:16:40.777Z,18.30
2022-07-26T02:19:46.114Z,18.30
2022-07-26T02:22:53.004Z,18.28
2022-07-26T02:25:58.653Z,18.27
2022-07-26T02:29:06.247Z,18.26
2022-07-26T02:32:11.901Z,18.26
2022-07-26T02:35:17.545Z,18.23
2022-07-26T02:38:25.754Z,18.23
2022-07-26T02:41:31.920Z,18.23
2022-07-26T02:44:37.971Z,18.22
2022-07-26T02:47:43.428Z,18.24
2022-07-26T02:50:52.160Z,18.24
2022-07-26T02:53:59.344Z,18.25
2022-07-26T02:57:07.141Z,18.25
2022-07-26T03:00:12.173Z,18.24
2022-07-26T03:03:20.916Z,18.24
2022-07-26T03:06:28.397Z,18.27
2022-07-26T03:09:36.197Z,18.29
2022-07-26T03:12:42.158Z,18.30
2022-07-26T03:15:47.323Z,18.33
2022-07-26T03:18:53.006Z,18.37
2022-07-26T03:21:58.497Z,18.42
2022-07-26T03:25:06.210Z,18.45
2022-07-26T03:28:17.472Z,18.50
2022-07-26T03:31:22.260Z,18.56
2022-07-26T03:34:28.497Z,18.63
2022-07-26T03:37:46.020Z,18.68
2022-07-26T03:40:42.562Z,18.74
2022-07-26T03:43:48.821Z,18.78
2022-07-26T03:46:56.726Z,18.79
2022-07-26T03:50:02.501Z,18.83
2022-07-26T03:53:09.662Z,18.88
2022-07-26T03:56:32.322Z,18.95
2022-07-26T03:59:39.321Z,18.99
2022-07-26T04:02:46.477Z,19.03
2022-07-26T04:05:52.910Z,19.07
2022-07-26T04:08:59.013Z,19.14
2022-07-26T04:12:04.004Z,19.27
2022-07-26T04:15:10.125Z,19.37
2022-07-26T04:18:15.169Z,19.44
2022-07-26T04:21:22.437Z,19.47
2022-07-26T04:24:29.626Z,19.50
2022-07-26T04:27:38.448Z,19.52
2022-07-26T04:30:44.058Z,19.53
2022-07-26T04:33:49.856Z,19.53
2022-07-26T04:36:55.999Z,19.58
2022-07-26T04:40:02.803Z,19.63
2022-07-26T04:43:10.596Z,19.70
2022-07-26T04:46:17.130Z,19.79
2022-07-26T04:49:24.126Z,19.87
2022-07-26T04:52:29.305Z,19.95
2022-07-26T04:55:38.446Z,20.04
2022-07-26T04:58:43.640Z,20.13
2022-07-26T05:01:49.924Z,20.22
2022-07-26T05:04:56.724Z,20.32
2022-07-26T05:08:11.162Z,20.42
2022-07-26T05:11:19.999Z,20.53
2022-07-26T05:14:30.129Z,20.59
2022-07-26T05:17:40.688Z,20.64
2022-07-26T05:20:51.337Z,20.72
2022-07-26T05:23:57.641Z,20.78
2022-07-26T05:27:03.044Z,20.86
2022-07-26T05:30:11.969Z,20.97
2022-07-26T05:33:20.945Z,21.09
2022-07-26T05:36:27.421Z,21.24
2022-07-26T05:39:34.002Z,21.37
2022-07-26T05:42:41.174Z,21.46
2022-07-26T05:45:48.568Z,21.50
2022-07-26T05:49:01.847Z,21.59
2022-07-26T05:52:02.167Z,21.74
2022-07-26T05:55:08.056Z,21.88
2022-07-26T05:58:14.396Z,21.99
2022-07-26T06:01:22.881Z,22.05
2022-07-26T06:04:32.823Z,22.09
2022-07-26T06:07:40.085Z,22.13
2022-07-26T06:10:46.506Z,22.18
2022-07-26T06:13:56.562Z,22.20
2022-07-26T06:17:04.687Z,22.19
2022-07-26T06:20:17.159Z,22.23
2022-07-26T06:23:31.986Z,22.25
2022-07-26T06:26:33.510Z,22.29
2022-07-26T06:29:39.964Z,22.41
2022-07-26T06:33:15.812Z,22.52
2022-07-26T06:36:29.963Z,22.55
2022-07-26T06:39:33.818Z,22.58
2022-07-26T06:42:49.014Z,22.67
2022-07-26T06:46:02.645Z,22.76
2022-07-26T06:49:20.567Z,22.78
2022-07-26T06:52:25.758Z,22.76
2022-07-26T06:55:33.407Z,22.78
2022-07-26T06:58:42.245Z,22.81
2022-07-26T07:01:55.525Z,22.83
2022-07-26T07:04:51.519Z,22.89
2022-07-26T07:07:57.900Z,22.90
2022-07-26T07:11:19.865Z,22.93
2022-07-26T07:14:30.001Z,22.99
2022-07-26T07:17:36.771Z,22.95
2022-07-26T07:20:44.151Z,22.94
2022-07-26T07:23:51.857Z,22.90
2022-07-26T07:26:58.504Z,22.89
2022-07-26T07:30:05.939Z,22.89
2022-07-26T07:33:22.667Z,22.93
2022-07-26T07:36:25.583Z,22.93
2022-07-26T07:39:34.972Z,22.97
2022-07-26T07:42:44.207Z,22.97
2022-07-26T07:45:51.733Z,22.92
2022-07-26T07:48:58.165Z,22.91
2022-07-26T07:52:08.058Z,22.99
2022-07-26T07:55:40.374Z,23.10
2022-07-26T07:58:25.149Z,23.21
2022-07-26T08:01:39.918Z,23.31
2022-07-26T08:04:41.666Z,23.33
2022-07-26T08:07:52.580Z,23.40
2022-07-26T08:11:13.814Z,23.45
2022-07-26T08:14:21.850Z,23.48
2022-07-26T08:17:29.223Z,23.49
2022-07-26T08:20:40.059Z,23.55
2022-07-26T08:23:49.692Z,23.57
2022-07-26T08:27:02.094Z,23.58
2022-07-26T08:30:08.544Z,23.63
2022-07-26T08:33:17.000Z,23.68
2022-07-26T08:36:32.387Z,23.80
2022-07-26T08:39:35.750Z,24.04
2022-07-26T08:42:44.021Z,24.26
2022-07-26T08:45:57.794Z,24.48
2022-07-26T08:49:04.858Z,24.63
2022-07-26T08:52:10.451Z,24.70
2022-07-26T08:55:17.703Z,24.70
2022-07-26T08:58:26.805Z,24.59
2022-07-26T09:01:32.700Z,24.44
2022-07-26T09:04:45.155Z,24.32
2022-07-26T09:07:56.375Z,24.26
2022-07-26T09:11:08.434Z,24.13
2022-07-26T09:14:20.918Z,23.93
2022-07-26T09:17:36.116Z,23.80
2022-07-26T09:20:48.917Z,23.72
2022-07-26T09:23:55.307Z,23.70
2022-07-26T09:27:15.244Z,23.68
2022-07-26T09:30:27.483Z,23.66
2022-07-26T09:33:34.247Z,23.64
2022-07-26T09:36:40.326Z,23.68
2022-07-26T09:39:47.443Z,23.70
2022-07-26T09:43:15.744Z,23.71
2022-07-26T09:46:24.262Z,23.81
2022-07-26T09:49:40.719Z,24.00
2022-07-26T09:52:52.387Z,24.17
2022-07-26T09:56:06.979Z,24.32
2022-07-26T09:59:13.353Z,24.51
2022-07-26T10:02:25.355Z,24.72
2022-07-26T10:05:31.850Z,25.00
2022-07-26T10:08:38.522Z,25.24
2022-07-26T10:11:46.600Z,25.36
2022-07-26T10:14:55.805Z,25.37
2022-07-26T10:18:04.294Z,25.35
2022-07-26T10:21:12.294Z,25.30
2022-07-26T10:24:22.791Z,25.17
2022-07-26T10:27:49.810Z,25.04
2022-07-26T10:30:55.510Z,25.02
2022-07-26T10:34:06.384Z,25.11
2022-07-26T10:37:16.555Z,25.27
2022-07-26T10:40:36.286Z,25.39
2022-07-26T10:43:46.528Z,25.46
2022-07-26T10:47:14.177Z,25.52
2022-07-26T10:50:22.778Z,25.69
2022-07-26T10:53:42.325Z,25.77
2022-07-26T10:56:48.258Z,25.70
2022-07-26T10:59:56.568Z,25.63
2022-07-26T11:03:10.253Z,25.51
2022-07-26T11:06:31.386Z,25.51
2022-07-26T11:09:46.687Z,25.61
2022-07-26T11:12:53.953Z,25.84
2022-07-26T11:16:01.639Z,25.96
2022-07-26T11:19:08.457Z,26.03
2022-07-26T11:22:21.734Z,26.14
2022-07-26T11:25:38.213Z,26.29
2022-07-26T11:29:06.822Z,26.42
2022-07-26T11:32:22.365Z,26.57
2022-07-26T11:35:37.316Z,26.65
2022-07-26T11:39:06.842Z,26.55
2022-07-26T11:42:27.987Z,26.50
2022-07-26T11:45:38.740Z,26.43
2022-07-26T11:48:51.285Z,26.36
2022-07-26T11:52:10.806Z,26.24
2022-07-26T11:55:20.299Z,26.14
2022-07-26T11:58:27.318Z,26.00
2022-07-26T12:01:35.123Z,26.08
2022-07-26T12:04:52.650Z,26.27
2022-07-26T12:08:18.093Z,26.47
2022-07-26T12:11:28.539Z,26.60
2022-07-26T12:14:45.620Z,26.59
2022-07-26T12:17:52.779Z,26.56
2022-07-26T12:21:14.981Z,26.73
2022-07-26T12:25:02.312Z,27.01
2022-07-26T12:28:14.209Z,27.23
2022-07-26T12:31:19.520Z,27.09
2022-07-26T12:34:28.065Z,26.87
2022-07-26T12:37:40.665Z,26.64
2022-07-26T12:40:46.827Z,26.42
2022-07-26T12:44:17.708Z,26.25
2022-07-26T12:47:26.996Z,26.11
2022-07-26T12:50:35.130Z,26.00
2022-07-26T12:53:40.850Z,25.96
2022-07-26T12:56:47.458Z,26.00
2022-07-26T12:59:56.654Z,26.17
2022-07-26T13:03:05.425Z,26.52
2022-07-26T13:06:15.649Z,26.93
2022-07-26T13:09:22.579Z,27.26
2022-07-26T13:12:33.367Z,27.36
2022-07-26T13:15:40.758Z,27.30
2022-07-26T13:18:50.522Z,27.10
2022-07-26T13:21:58.705Z,26.87
2022-07-26T13:25:08.568Z,26.69
2022-07-26T13:28:21.361Z,26.60
2022-07-26T13:31:52.136Z,26.64
2022-07-26T13:35:07.795Z,26.71
2022-07-26T13:38:29.531Z,26.79
2022-07-26T13:41:42.770Z,26.88
2022-07-26T13:44:47.675Z,26.85
2022-07-26T13:47:56.427Z,26.77
2022-07-26T13:51:04.481Z,26.43
2022-07-26T13:54:12.987Z,26.07
2022-07-26T13:57:20.904Z,25.71
2022-07-26T14:00:31.915Z,25.44
2022-07-26T14:03:39.150Z,25.30
2022-07-26T14:06:47.547Z,25.21
2022-07-26T14:09:54.575Z,25.17
2022-07-26T14:13:02.221Z,25.16
2022-07-26T14:16:10.929Z,25.23
2022-07-26T14:19:21.239Z,25.27
2022-07-26T14:22:30.701Z,25.26
2022-07-26T14:25:42.637Z,25.27
2022-07-26T14:28:51.537Z,25.28
2022-07-26T14:32:00.612Z,25.18
2022-07-26T14:35:09.440Z,25.00
2022-07-26T14:38:23.335Z,24.86
2022-07-26T14:41:26.961Z,24.82
2022-07-26T14:44:33.981Z,24.80
2022-07-26T14:47:42.994Z,24.81
2022-07-26T14:51:08.793Z,24.82
2022-07-26T14:53:57.856Z,24.86
2022-07-26T14:57:06.455Z,24.92
2022-07-26T15:00:11.725Z,24.92
2022-07-26T15:03:20.550Z,24.92
2022-07-26T15:06:28.553Z,24.83
2022-07-26T15:09:36.489Z,24.78
2022-07-26T15:12:43.042Z,24.70
2022-07-26T15:15:51.384Z,24.62
2022-07-26T15:18:59.607Z,24.54
2022-07-26T15:22:10.545Z,24.48
2022-07-26T15:25:18.894Z,24.47
2022-07-26T15:28:25.843Z,24.46
2022-07-26T15:31:37.434Z,24.45
2022-07-26T15:34:42.629Z,24.38
2022-07-26T15:37:52.751Z,24.29
2022-07-26T15:41:00.019Z,24.24
2022-07-26T15:44:08.224Z,24.16
2022-07-26T15:47:43.439Z,24.06
2022-07-26T15:50:24.882Z,24.02
2022-07-26T15:53:30.721Z,23.96
2022-07-26T15:56:38.969Z,23.90
2022-07-26T15:59:45.417Z,23.86
2022-07-26T16:02:52.781Z,23.86
2022-07-26T16:06:05.475Z,23.84
2022-07-26T16:09:17.274Z,23.81
2022-07-26T16:12:20.706Z,23.79
2022-07-26T16:15:29.475Z,23.77
2022-07-26T16:18:36.511Z,23.76
2022-07-26T16:21:44.926Z,23.76
2022-07-26T16:24:53.602Z,23.73
2022-07-26T16:28:02.684Z,23.70
2022-07-26T16:31:13.158Z,23.67
2022-07-26T16:34:22.797Z,23.64
2022-07-26T16:37:30.312Z,23.56
2022-07-26T16:40:37.975Z,23.47
2022-07-26T16:43:45.877Z,23.39
2022-07-26T16:46:52.426Z,23.31
2022-07-26T16:49:59.065Z,23.30
2022-07-26T16:53:05.018Z,23.25
2022-07-26T16:56:03.471Z,23.21
2022-07-26T16:58:52.252Z,23.15
2022-07-26T17:01:45.821Z,23.09
2022-07-26T17:04:34.075Z,23.05
2022-07-26T17:07:34.618Z,23.00
2022-07-26T17:10:20.943Z,22.98
2022-07-26T17:13:15.207Z,22.93
2022-07-26T17:16:09.273Z,22.85
2022-07-26T17:19:15.906Z,22.76
2022-07-26T17:22:23.236Z,22.67
2022-07-26T17:25:32.233Z,22.60
2022-07-26T17:28:37.405Z,22.54
2022-07-26T17:31:44.810Z,22.45
2022-07-26T17:34:51.554Z,22.36
2022-07-26T17:37:57.393Z,22.29
2022-07-26T17:41:03.677Z,22.20
2022-07-26T17:44:13.789Z,22.12
2022-07-26T17:47:28.891Z,22.01
2022-07-26T17:50:38.121Z,21.94
2022-07-26T17:53:37.547Z,21.84
2022-07-26T17:56:44.223Z,21.77
2022-07-26T17:59:50.185Z,21.66
2022-07-26T18:02:50.589Z,21.56
2022-07-26T18:05:43.302Z,21.47
2022-07-26T18:08:51.634Z,21.37
2022-07-26T18:11:57.325Z,21.27
2022-07-26T18:15:04.771Z,21.20
2022-07-26T18:18:10.591Z,21.11
2022-07-26T18:21:17.104Z,21.02
2022-07-26T18:24:23.243Z,20.95
2022-07-26T18:27:30.259Z,20.90
2022-07-26T18:30:41.594Z,20.85
2022-07-26T18:33:47.431Z,20.79
2022-07-26T18:36:54.524Z,20.73
2022-07-26T18:40:00.005Z,20.65
2022-07-26T18:43:08.301Z,20.58
2022-07-26T18:46:15.816Z,20.51
2022-07-26T18:49:27.235Z,20.46
2022-07-26T18:52:32.857Z,20.38
2022-07-26T18:55:38.304Z,20.30
2022-07-26T18:58:43.958Z,20.26
2022-07-26T19:01:51.189Z,20.22
2022-07-26T19:05:01.553Z,20.16
2022-07-26T19:08:07.839Z,20.11
2022-07-26T19:11:13.933Z,20.08
2022-07-26T19:14:20.129Z,19.99
2022-07-26T19:17:26.773Z,19.94
2022-07-26T19:20:35.918Z,19.87
2022-07-26T19:23:40.596Z,19.82
2022-07-26T19:26:45.850Z,19.77
2022-07-26T19:29:52.374Z,19.72
2022-07-26T19:33:00.318Z,19.67
2022-07-26T19:36:06.548Z,19.65
2022-07-26T19:39:15.272Z,19.64
2022-07-26T19:42:22.029Z,19.62
2022-07-26T19:45:28.997Z,19.60
2022-07-26T19:48:35.866Z,19.57
2022-07-26T19:51:42.986Z,19.56
2022-07-26T19:54:49.294Z,19.51
2022-07-26T19:57:56.910Z,19.48
2022-07-26T20:01:05.854Z,19.45
2022-07-26T20:04:14.030Z,19.37
2022-07-26T20:07:20.492Z,19.30
2022-07-26T20:10:31.787Z,19.27
2022-07-26T20:13:35.411Z,19.23
2022-07-26T20:16:41.781Z,19.22
2022-07-26T20:19:48.636Z,19.23
2022-07-26T20:22:55.089Z,19.23
2022-07-26T20:26:02.289Z,19.23
2022-07-26T20:29:12.700Z,19.26
2022-07-26T20:32:19.730Z,19.30
2022-07-26T20:35:26.634Z,19.33
2022-07-26T20:38:32.653Z,19.38
2022-07-26T20:41:39.462Z,19.43
2022-07-26T20:44:45.940Z,19.49
2022-07-26T20:47:52.814Z,19.52
2022-07-26T20:50:59.710Z,19.54
2022-07-26T20:54:06.360Z,19.54
2022-07-26T20:57:12.841Z,19.55
2022-07-26T21:00:21.601Z,19.53
2022-07-26T21:03:31.626Z,19.54
2022-07-26T21:06:40.272Z,19.56
2022-07-26T21:09:46.929Z,19.58
2022-07-26T21:12:52.028Z,19.59
2022-07-26T21:15:59.006Z,19.60
2022-07-26T21:19:03.872Z,19.58
2022-07-26T21:22:09.978Z,19.57
2022-07-26T21:25:15.601Z,19.58
2022-07-26T21:28:22.422Z,19.60
2022-07-26T21:31:30.248Z,19.62
2022-07-26T21:34:37.512Z,19.61
2022-07-26T21:37:46.478Z,19.61
2022-07-26T21:40:54.807Z,19.63
2022-07-26T21:44:03.838Z,19.63
2022-07-26T21:47:13.783Z,19.60
2022-07-26T21:50:21.782Z,19.57
2022-07-26T21:53:28.678Z,19.54
2022-07-26T21:56:36.866Z,19.51
2022-07-26T21:59:42.636Z,19.48
2022-07-26T22:02:49.078Z,19.48
2022-07-26T22:05:55.878Z,19.47
2022-07-26T22:09:01.526Z,19.51
2022-07-26T22:12:08.099Z,19.52
2022-07-26T22:15:14.698Z,19.54
2022-07-26T22:18:21.352Z,19.53
2022-07-26T22:21:28.231Z,19.52
2022-07-26T22:24:34.908Z,19.50
2022-07-26T22:27:43.345Z,19.49
2022-07-26T22:30:51.142Z,19.48
2022-07-26T22:33:57.393Z,19.48
2022-07-26T22:37:03.668Z,19.45
2022-07-26T22:40:10.545Z,19.43
2022-07-26T22:43:16.813Z,19.39
2022-07-26T22:46:29.162Z,19.33
2022-07-26T22:49:32.483Z,19.29
2022-07-26T22:52:39.070Z,19.25
2022-07-26T22:55:45.871Z,19.19
2022-07-26T22:58:53.387Z,19.15
2022-07-26T23:02:00.665Z,19.11
2022-07-26T23:05:08.243Z,19.04
2022-07-26T23:08:45.091Z,19.01
2022-07-26T23:11:23.340Z,18.97
2022-07-26T23:14:29.812Z,18.95
2022-07-26T23:17:35.759Z,18.93
2022-07-26T23:20:45.107Z,18.89
2022-07-26T23:23:53.821Z,18.85
2022-07-26T23:26:58.768Z,18.83
2022-07-26T23:30:04.723Z,18.81
2022-07-26T23:33:10.992Z,18.80
2022-07-26T23:36:18.598Z,18.78
2022-07-26T23:39:27.212Z,18.77
2022-07-26T23:42:34.401Z,18.72
2022-07-26T23:45:42.970Z,18.67
2022-07-26T23:48:50.852Z,18.62
2022-07-26T23:51:57.699Z,18.60
2022-07-26T23:55:09.260Z,18.56
2022-07-26T23:58:16.559Z,18.53
